createdAt,value
2017-08-01T00:01:49.413Z,10.52
2017-08-01T00:04:16.071Z,9.27
2017-08-01T00:06:42.749Z,7.53
2017-08-01T00:09:09.407Z,7.53
2017-08-01T00:11:36.095Z,9.30
2017-08-01T00:14:02.756Z,7.22
2017-08-01T00:16:29.415Z,7.37
2017-08-01T00:18:56.081Z,7.30
2017-08-01T00:21:22.743Z,7.62
2017-08-01T00:23:49.403Z,8.38
2017-08-01T00:26:16.066Z,7.10
2017-08-01T00:28:42.728Z,7.87
2017-08-01T00:31:09.423Z,7.10
2017-08-01T00:33:36.087Z,7.90
2017-08-01T00:36:02.746Z,7.75
2017-08-01T00:38:29.446Z,6.93
2017-08-01T00:40:56.113Z,8.32
2017-08-01T00:43:22.775Z,9.20
2017-08-01T00:45:49.430Z,6.05
2017-08-01T00:48:16.095Z,8.27
2017-08-01T00:50:42.773Z,8.70
2017-08-01T00:53:09.436Z,7.03
2017-08-01T00:55:36.100Z,5.45
2017-08-01T00:58:02.768Z,6.53
2017-08-01T01:00:29.430Z,5.90
2017-08-01T01:02:56.088Z,5.78
2017-08-01T01:05:22.771Z,5.55
2017-08-01T01:07:49.427Z,5.00
2017-08-01T01:10:16.115Z,6.65
2017-08-01T01:12:42.771Z,6.00
2017-08-01T01:15:09.436Z,6.65
2017-08-01T01:17:36.115Z,5.32
2017-08-01T01:20:02.775Z,4.30
2017-08-01T01:22:29.459Z,8.35
2017-08-01T01:24:56.120Z,8.55
2017-08-01T01:27:22.808Z,4.30
2017-08-01T01:29:49.472Z,6.12
2017-08-01T01:32:16.160Z,7.15
2017-08-01T01:34:42.820Z,5.60
2017-08-01T01:37:09.503Z,4.78
2017-08-01T01:39:36.173Z,5.28
2017-08-01T01:42:02.858Z,7.20
2017-08-01T01:44:29.522Z,5.03
2017-08-01T01:46:56.208Z,5.85
2017-08-01T01:49:22.893Z,4.45
2017-08-01T01:51:49.602Z,5.53
2017-08-01T01:54:16.267Z,4.72
2017-08-01T01:56:42.927Z,4.40
2017-08-01T01:59:09.590Z,4.93
2017-08-01T02:01:36.252Z,5.32
2017-08-01T02:04:02.941Z,8.77
2017-08-01T02:06:29.600Z,6.03
2017-08-01T02:08:56.278Z,4.70
2017-08-01T02:11:22.935Z,6.25
2017-08-01T02:13:49.616Z,4.72
2017-08-01T02:16:16.276Z,4.57
2017-08-01T02:18:42.963Z,5.28
2017-08-01T02:21:09.619Z,9.82
2017-08-01T02:23:36.303Z,5.95
2017-08-01T02:26:02.964Z,5.60
2017-08-01T02:28:29.623Z,4.70
2017-08-01T02:30:56.284Z,6.95
2017-08-01T02:33:22.947Z,7.75
2017-08-01T02:35:49.630Z,4.80
2017-08-01T02:38:16.288Z,6.85
2017-08-01T02:40:42.987Z,5.87
2017-08-01T02:43:09.652Z,5.00
2017-08-01T02:45:36.344Z,4.72
2017-08-01T02:48:03.003Z,5.40
2017-08-01T02:50:29.719Z,4.32
2017-08-01T02:52:56.404Z,5.28
2017-08-01T02:55:23.072Z,5.95
2017-08-01T02:57:49.736Z,8.63
2017-08-01T03:00:16.390Z,6.68
2017-08-01T03:02:43.060Z,6.57
2017-08-01T03:05:09.719Z,5.80
2017-08-01T03:07:36.380Z,10.27
2017-08-01T03:10:03.039Z,5.40
2017-08-01T03:12:29.715Z,5.32
2017-08-01T03:14:56.370Z,7.35
2017-08-01T03:17:23.055Z,11.10
2017-08-01T03:19:49.716Z,7.28
2017-08-01T03:22:16.399Z,5.70
2017-08-01T03:24:43.181Z,5.78
2017-08-01T03:27:09.867Z,11.80
2017-08-01T03:29:36.523Z,6.22
2017-08-01T03:32:03.183Z,5.03
2017-08-01T03:34:29.844Z,6.35
2017-08-01T03:36:56.507Z,5.47
2017-08-01T03:39:23.173Z,6.03
2017-08-01T03:41:49.830Z,6.30
2017-08-01T03:44:16.524Z,8.50
2017-08-01T03:46:43.183Z,7.12
2017-08-01T03:49:09.871Z,8.90
2017-08-01T03:51:36.536Z,7.12
2017-08-01T03:54:03.225Z,5.50
2017-08-01T03:56:29.891Z,6.78
2017-08-01T03:58:56.552Z,6.10
2017-08-01T04:01:23.213Z,8.80
2017-08-01T04:03:49.875Z,5.75
2017-08-01T04:06:16.539Z,6.07
2017-08-01T04:08:43.203Z,6.50
2017-08-01T04:11:09.874Z,6.90
2017-08-01T04:13:36.531Z,10.85
2017-08-01T04:16:03.211Z,8.25
2017-08-01T04:18:29.878Z,10.05
2017-08-01T04:20:56.600Z,6.47
2017-08-01T04:23:23.255Z,6.82
2017-08-01T04:25:49.959Z,7.22
2017-08-01T04:28:16.635Z,9.30
2017-08-01T04:30:43.293Z,6.07
2017-08-01T04:33:09.950Z,6.05
2017-08-01T04:35:36.611Z,7.62
2017-08-01T04:38:03.276Z,6.62
2017-08-01T04:40:29.931Z,6.53
2017-08-01T04:42:56.592Z,6.40
2017-08-01T04:45:23.261Z,7.80
2017-08-01T04:47:49.919Z,6.10
2017-08-01T04:50:16.575Z,7.25
2017-08-01T04:52:43.235Z,6.55
2017-08-01T04:55:09.900Z,8.82
2017-08-01T04:57:36.585Z,6.20
2017-08-01T05:00:03.252Z,6.50
2017-08-01T05:02:29.943Z,5.55
2017-08-01T05:04:56.610Z,11.45
2017-08-01T05:07:23.287Z,8.30
2017-08-01T05:09:49.953Z,7.12
2017-08-01T05:12:16.629Z,6.90
2017-08-01T05:14:43.286Z,6.05
2017-08-01T05:17:09.947Z,6.72
2017-08-01T05:19:36.607Z,9.13
2017-08-01T05:22:03.263Z,6.72
2017-08-01T05:24:29.927Z,7.65
2017-08-01T05:26:56.595Z,10.13
2017-08-01T05:29:23.270Z,13.23
2017-08-01T05:31:49.947Z,7.80
2017-08-01T05:34:16.705Z,10.88
2017-08-01T05:36:43.371Z,8.68
2017-08-01T05:39:10.063Z,7.80
2017-08-01T05:41:36.728Z,8.63
2017-08-01T05:44:03.420Z,6.57
2017-08-01T05:46:30.096Z,6.65
2017-08-01T05:48:56.760Z,6.60
2017-08-01T05:51:23.432Z,6.90
2017-08-01T05:53:50.087Z,9.07
2017-08-01T05:56:16.754Z,8.17
2017-08-01T05:58:43.403Z,7.67
2017-08-01T06:01:10.067Z,7.50
2017-08-01T06:03:36.733Z,6.40
2017-08-01T06:06:03.401Z,6.43
2017-08-01T06:08:30.057Z,5.80
2017-08-01T06:10:56.724Z,7.93
2017-08-01T06:13:23.379Z,7.10
2017-08-01T06:15:50.069Z,6.70
2017-08-01T06:18:16.734Z,5.40
2017-08-01T06:20:43.391Z,5.13
2017-08-01T06:23:10.061Z,5.67
2017-08-01T06:25:36.725Z,4.60
2017-08-01T06:28:03.384Z,5.60
2017-08-01T06:30:30.060Z,4.83
2017-08-01T06:32:56.763Z,5.90
2017-08-01T06:35:23.425Z,4.73
2017-08-01T06:37:50.112Z,6.23
2017-08-01T06:40:16.775Z,5.13
2017-08-01T06:42:43.461Z,6.33
2017-08-01T06:45:10.124Z,4.50
2017-08-01T06:47:36.810Z,4.80
2017-08-01T06:50:03.472Z,9.73
2017-08-01T06:52:30.140Z,4.50
2017-08-01T06:54:56.799Z,4.20
2017-08-01T06:57:23.455Z,4.60
2017-08-01T06:59:50.135Z,5.67
2017-08-01T07:02:16.793Z,4.57
2017-08-01T07:04:43.487Z,4.60
2017-08-01T07:07:10.143Z,5.00
2017-08-01T07:09:36.823Z,5.13
2017-08-01T07:12:03.491Z,4.73
2017-08-01T07:14:30.189Z,4.83
2017-08-01T07:16:56.888Z,4.37
2017-08-01T07:19:23.571Z,7.13
2017-08-01T07:21:50.231Z,5.10
2017-08-01T07:24:16.912Z,6.10
2017-08-01T07:26:43.568Z,4.10
2017-08-01T07:29:10.257Z,6.00
2017-08-01T07:31:36.929Z,4.93
2017-08-01T07:34:03.583Z,4.97
2017-08-01T07:36:30.294Z,5.83
2017-08-01T07:38:56.958Z,4.73
2017-08-01T07:41:23.651Z,4.93
2017-08-01T07:43:50.324Z,6.73
2017-08-01T07:46:18.843Z,8.67
2017-08-01T07:48:45.508Z,7.40
2017-08-01T07:51:12.193Z,5.17
2017-08-01T07:53:38.859Z,4.90
2017-08-01T07:56:05.548Z,5.57
2017-08-01T07:58:32.219Z,4.90
2017-08-01T08:00:58.874Z,4.60
2017-08-01T08:03:25.532Z,6.70
2017-08-01T08:05:52.196Z,4.63
2017-08-01T08:08:18.879Z,5.87
2017-08-01T08:10:45.544Z,4.73
2017-08-01T08:13:12.223Z,4.70
2017-08-01T08:15:38.904Z,5.27
2017-08-01T08:18:05.592Z,6.63
2017-08-01T08:20:32.260Z,5.23
2017-08-01T08:22:58.945Z,4.60
2017-08-01T08:25:25.608Z,4.87
2017-08-01T08:27:52.291Z,5.50
2017-08-01T08:30:18.947Z,5.00
2017-08-01T08:32:45.608Z,5.17
2017-08-01T08:35:12.290Z,4.80
2017-08-01T08:37:38.953Z,5.17
2017-08-01T08:40:05.611Z,5.30
2017-08-01T08:42:32.271Z,5.13
2017-08-01T08:44:58.959Z,5.37
2017-08-01T08:47:25.613Z,5.60
2017-08-01T08:49:52.307Z,5.67
2017-08-01T08:52:18.978Z,5.50
2017-08-01T08:54:45.664Z,8.00
2017-08-01T08:57:12.337Z,5.47
2017-08-01T08:59:39.012Z,5.60
2017-08-01T09:02:05.676Z,5.97
2017-08-01T09:04:32.335Z,5.50
2017-08-01T09:06:59.016Z,5.23
2017-08-01T09:09:25.679Z,6.40
2017-08-01T09:11:52.373Z,8.70
2017-08-01T09:14:19.106Z,6.97
2017-08-01T09:16:45.767Z,6.30
2017-08-01T09:19:12.437Z,7.80
2017-08-01T09:21:39.132Z,5.93
2017-08-01T09:24:05.804Z,5.70
2017-08-01T09:26:32.491Z,6.33
2017-08-01T09:28:59.149Z,5.73
2017-08-01T09:31:25.803Z,5.20
2017-08-01T09:33:52.459Z,5.10
2017-08-01T09:36:19.127Z,5.83
2017-08-01T09:38:45.791Z,8.17
2017-08-01T09:41:12.452Z,7.43
2017-08-01T09:43:39.132Z,6.43
2017-08-01T09:46:05.795Z,7.10
2017-08-01T09:48:32.471Z,5.63
2017-08-01T09:50:59.142Z,5.37
2017-08-01T09:53:25.869Z,5.67
2017-08-01T09:55:52.527Z,6.10
2017-08-01T09:58:19.213Z,6.30
2017-08-01T10:00:45.876Z,5.47
2017-08-01T10:03:12.531Z,5.33
2017-08-01T10:05:39.195Z,5.30
2017-08-01T10:08:05.864Z,5.70
2017-08-01T10:10:32.528Z,6.00
2017-08-01T10:12:59.192Z,5.10
2017-08-01T10:15:25.847Z,5.60
2017-08-01T10:17:52.507Z,5.77
2017-08-01T10:20:19.163Z,5.27
2017-08-01T10:22:45.823Z,6.13
2017-08-01T10:25:12.513Z,6.00
2017-08-01T10:27:39.180Z,6.43
2017-08-01T10:30:05.860Z,5.83
2017-08-01T10:32:32.522Z,5.30
2017-08-01T10:34:59.196Z,6.40
2017-08-01T10:37:25.858Z,6.40
2017-08-01T10:39:52.519Z,6.00
2017-08-01T10:42:19.176Z,6.40
2017-08-01T10:44:45.835Z,9.73
2017-08-01T10:47:12.502Z,5.47
2017-08-01T10:49:39.155Z,5.87
2017-08-01T10:52:05.812Z,5.80
2017-08-01T10:54:32.488Z,6.00
2017-08-01T10:56:59.204Z,5.77
2017-08-01T10:59:25.865Z,5.63
2017-08-01T11:01:52.537Z,5.30
2017-08-01T11:04:19.191Z,4.93
2017-08-01T11:06:45.850Z,5.60
2017-08-01T11:09:12.498Z,5.00
2017-08-01T11:11:40.107Z,5.30
2017-08-01T11:14:06.763Z,5.80
2017-08-01T11:16:33.429Z,6.20
2017-08-01T11:19:00.084Z,5.80
2017-08-01T11:21:26.747Z,5.27
2017-08-01T11:23:53.417Z,5.83
2017-08-01T11:26:20.079Z,6.03
2017-08-01T11:28:46.755Z,5.33
2017-08-01T11:31:13.416Z,5.77
2017-08-01T11:33:40.107Z,5.50
2017-08-01T11:36:06.763Z,5.10
2017-08-01T11:38:33.423Z,4.87
2017-08-01T11:41:00.083Z,5.70
2017-08-01T11:43:26.740Z,5.47
2017-08-01T11:45:53.396Z,5.07
2017-08-01T11:48:20.054Z,5.80
2017-08-01T11:50:46.712Z,6.13
2017-08-01T11:53:13.379Z,5.10
2017-08-01T11:55:40.048Z,6.43
2017-08-01T11:58:06.707Z,6.80
2017-08-01T12:00:33.372Z,7.07
2017-08-01T12:03:00.024Z,5.53
2017-08-01T12:05:26.679Z,4.90
2017-08-01T12:07:53.347Z,5.10
2017-08-01T12:10:20.007Z,5.00
2017-08-01T12:12:46.663Z,6.80
2017-08-01T12:15:13.476Z,5.40
2017-08-01T12:17:40.135Z,5.03
2017-08-01T12:20:06.799Z,4.43
2017-08-01T12:22:33.456Z,4.80
2017-08-01T12:25:00.115Z,5.70
2017-08-01T12:27:26.777Z,5.70
2017-08-01T12:29:53.439Z,4.77
2017-08-01T12:32:20.101Z,4.80
2017-08-01T12:34:47.572Z,4.90
2017-08-01T12:37:14.262Z,5.00
2017-08-01T12:39:40.919Z,4.37
2017-08-01T12:42:07.582Z,5.07
2017-08-01T12:44:34.256Z,5.50
2017-08-01T12:49:34.060Z,4.73
2017-08-01T12:52:00.758Z,4.73
2017-08-01T12:54:27.420Z,5.00
2017-08-01T12:56:54.075Z,5.00
2017-08-01T12:59:20.751Z,5.60
2017-08-01T13:01:47.416Z,4.43
2017-08-01T13:04:14.098Z,4.87
2017-08-01T13:06:40.773Z,4.73
2017-08-01T13:09:08.370Z,4.80
2017-08-01T13:11:35.167Z,4.83
2017-08-01T13:14:01.914Z,5.33
2017-08-01T13:16:28.600Z,4.33
2017-08-01T13:18:55.349Z,4.73
2017-08-01T13:21:22.026Z,4.80
2017-08-01T13:23:48.780Z,4.97
2017-08-01T13:26:15.457Z,5.13
2017-08-01T13:28:42.247Z,4.80
2017-08-01T13:31:08.932Z,4.57
2017-08-01T13:33:35.721Z,4.57
2017-08-01T13:36:02.628Z,5.53
2017-08-01T13:38:29.356Z,5.17
2017-08-01T13:40:56.099Z,5.03
2017-08-01T13:43:23.004Z,4.53
2017-08-01T13:45:49.728Z,4.80
2017-08-01T13:48:16.417Z,4.47
2017-08-01T13:50:43.131Z,4.73
2017-08-01T13:53:09.810Z,4.97
2017-08-01T13:55:36.564Z,4.67
2017-08-01T13:58:03.321Z,4.93
2017-08-01T14:00:30.037Z,4.20
2017-08-01T14:02:56.734Z,4.73
2017-08-01T14:05:23.458Z,4.77
2017-08-01T14:07:50.127Z,4.10
2017-08-01T14:10:16.792Z,5.03
2017-08-01T14:12:44.183Z,4.60
2017-08-01T14:15:10.886Z,7.27
2017-08-01T14:17:37.662Z,4.70
2017-08-01T14:20:04.337Z,5.10
2017-08-01T14:22:31.025Z,4.40
2017-08-01T14:24:57.695Z,4.40
2017-08-01T14:27:24.399Z,5.00
2017-08-01T14:29:51.053Z,4.13
2017-08-01T14:32:17.747Z,4.90
2017-08-01T14:34:44.418Z,4.53
2017-08-01T14:37:11.099Z,5.43
2017-08-01T14:39:37.759Z,5.53
2017-08-01T14:42:10.129Z,4.30
2017-08-01T14:44:44.611Z,4.97
2017-08-01T14:47:11.924Z,5.20
2017-08-01T14:49:38.598Z,4.90
2017-08-01T14:52:05.269Z,5.30
2017-08-01T14:54:31.932Z,5.30
2017-08-01T14:56:58.707Z,6.50
2017-08-01T14:59:25.407Z,6.20
2017-08-01T15:01:52.089Z,6.50
2017-08-01T15:04:18.790Z,6.53
2017-08-01T15:06:45.455Z,6.17
2017-08-01T15:09:12.172Z,7.20
2017-08-01T15:11:38.863Z,6.90
2017-08-01T15:14:05.558Z,7.50
2017-08-01T15:16:32.272Z,7.30
2017-08-01T15:18:58.972Z,7.90
2017-08-01T15:21:25.648Z,8.03
2017-08-01T15:23:52.305Z,8.47
2017-08-01T15:26:18.964Z,8.47
2017-08-01T15:28:45.642Z,8.67
2017-08-01T15:31:12.303Z,8.83
2017-08-01T15:33:38.983Z,8.93
2017-08-01T15:36:06.327Z,7.87
2017-08-01T15:38:32.997Z,8.60
2017-08-01T15:40:59.679Z,8.57
2017-08-01T15:43:26.427Z,8.60
2017-08-01T15:45:53.107Z,7.87
2017-08-01T15:48:19.839Z,9.03
2017-08-01T15:50:46.527Z,8.30
2017-08-01T15:53:13.200Z,8.17
2017-08-01T15:55:39.898Z,8.53
2017-08-01T15:58:06.555Z,7.93
2017-08-01T16:00:33.236Z,8.90
2017-08-01T16:02:59.895Z,8.13
2017-08-01T16:05:26.603Z,8.20
2017-08-01T16:07:53.263Z,10.07
2017-08-01T16:10:19.972Z,10.20
2017-08-01T16:12:46.632Z,10.50
2017-08-01T16:15:13.700Z,10.40
2017-08-01T16:17:40.361Z,8.37
2017-08-01T16:20:07.119Z,9.87
2017-08-01T16:22:33.801Z,10.33
2017-08-01T16:25:00.461Z,9.53
2017-08-01T16:27:27.147Z,9.30
2017-08-01T16:29:53.892Z,10.53
2017-08-01T16:32:20.579Z,10.67
2017-08-01T16:34:47.290Z,11.63
2017-08-01T16:37:13.986Z,11.07
2017-08-01T16:39:40.665Z,11.13
2017-08-01T16:42:07.394Z,14.23
2017-08-01T16:44:34.064Z,15.83
2017-08-01T16:47:00.731Z,15.07
2017-08-01T16:49:27.395Z,15.13
2017-08-01T16:51:54.065Z,16.93
2017-08-01T16:54:20.730Z,14.93
2017-08-01T16:56:47.391Z,16.47
2017-08-01T16:59:14.051Z,14.37
2017-08-01T17:01:40.711Z,15.50
2017-08-01T17:04:07.379Z,15.30
2017-08-01T17:06:34.051Z,16.80
2017-08-01T17:09:00.728Z,17.03
2017-08-01T17:11:27.396Z,16.20
2017-08-01T17:13:54.092Z,17.90
2017-08-01T17:16:20.756Z,17.67
2017-08-01T17:31:38.734Z,18.80
2017-08-01T17:34:05.419Z,18.47
2017-08-01T17:36:32.087Z,18.10
2017-08-01T17:38:58.792Z,19.50
2017-08-01T17:41:25.464Z,19.30
2017-08-01T17:43:52.137Z,17.47
2017-08-01T17:46:18.815Z,20.30
2017-08-01T17:48:45.485Z,18.60
2017-08-01T17:51:12.155Z,19.10
2017-08-01T17:53:38.826Z,20.20
2017-08-01T17:56:05.492Z,21.33
2017-08-01T17:58:32.165Z,20.83
2017-08-01T18:00:59.145Z,17.03
2017-08-01T18:03:25.935Z,12.80
2017-08-01T18:05:52.636Z,13.47
2017-08-01T18:08:19.307Z,12.77
2017-08-01T18:10:46.028Z,12.30
2017-08-01T18:13:12.691Z,11.40
2017-08-01T18:15:39.362Z,11.83
2017-08-01T18:18:06.032Z,12.47
2017-08-01T18:20:32.696Z,11.80
2017-08-01T18:22:59.362Z,12.80
2017-08-01T18:25:26.019Z,10.87
2017-08-01T18:27:52.686Z,11.00
2017-08-01T18:30:19.352Z,11.37
2017-08-01T18:32:46.014Z,10.97
2017-08-01T18:35:12.677Z,12.10
2017-08-01T18:37:39.344Z,11.87
2017-08-01T18:40:06.008Z,12.77
2017-08-01T18:42:32.678Z,11.33
2017-08-01T18:44:59.343Z,12.33
2017-08-01T18:47:26.013Z,11.90
2017-08-01T18:49:52.687Z,11.37
2017-08-01T18:52:19.388Z,12.80
2017-08-01T18:54:46.055Z,13.33
2017-08-01T18:57:12.812Z,12.37
2017-08-01T18:59:39.480Z,11.33
2017-08-01T19:02:06.175Z,11.70
2017-08-01T19:04:32.880Z,11.38
2017-08-01T19:06:59.587Z,11.55
2017-08-01T19:09:26.255Z,11.25
2017-08-01T19:11:52.915Z,10.73
2017-08-01T19:14:19.596Z,11.48
2017-08-01T19:16:46.272Z,11.77
2017-08-01T19:19:12.959Z,11.47
2017-08-01T19:21:39.639Z,11.80
2017-08-01T19:24:06.340Z,13.53
2017-08-01T19:26:32.999Z,12.20
2017-08-01T19:28:59.659Z,17.30
2017-08-01T19:31:26.323Z,12.10
2017-08-01T19:33:53.012Z,13.38
2017-08-01T19:36:19.684Z,13.82
2017-08-01T19:41:20.092Z,12.90
2017-08-01T19:43:46.763Z,12.63
2017-08-01T19:46:13.427Z,14.63
2017-08-01T19:48:40.087Z,13.77
2017-08-01T19:51:06.795Z,13.83
2017-08-01T19:53:33.460Z,14.17
2017-08-01T19:56:00.136Z,14.02
2017-08-01T19:58:26.812Z,15.00
2017-08-01T20:00:53.475Z,14.17
2017-08-01T20:03:20.151Z,14.98
2017-08-01T20:05:46.823Z,13.98
2017-08-01T20:08:13.503Z,15.45
2017-08-01T20:10:40.176Z,15.98
2017-08-01T20:13:06.857Z,14.70
2017-08-01T20:15:33.550Z,15.85
2017-08-01T20:18:00.225Z,15.02
2017-08-01T20:20:26.899Z,18.65
2017-08-01T20:22:53.567Z,15.70
2017-08-01T20:25:20.235Z,15.00
2017-08-01T20:27:46.903Z,17.37
2017-08-01T20:30:13.571Z,17.27
2017-08-01T20:32:40.283Z,17.10
2017-08-01T20:35:06.955Z,17.37
2017-08-01T20:37:33.626Z,18.08
2017-08-01T20:40:00.299Z,17.15
2017-08-01T20:42:26.972Z,16.00
2017-08-01T20:44:53.651Z,15.23
2017-08-01T20:47:20.319Z,16.30
2017-08-01T20:49:46.991Z,16.08
2017-08-01T20:52:13.663Z,16.83
2017-08-01T20:54:40.334Z,17.20
2017-08-01T20:57:07.022Z,16.37
2017-08-01T20:59:33.695Z,16.40
2017-08-01T21:02:00.378Z,18.87
2017-08-01T21:04:27.057Z,18.65
2017-08-01T21:06:53.731Z,20.52
2017-08-01T21:09:20.396Z,19.58
2017-08-01T21:11:47.062Z,18.73
2017-08-01T21:14:13.746Z,19.12
2017-08-01T21:16:40.439Z,20.10
2017-08-01T21:19:07.112Z,19.85
2017-08-01T21:21:33.808Z,19.65
2017-08-01T21:24:00.471Z,18.62
2017-08-01T21:26:27.164Z,21.98
2017-08-01T21:28:53.835Z,22.23
2017-08-01T21:31:20.515Z,21.83
2017-08-01T21:33:47.207Z,21.23
2017-08-01T21:36:13.876Z,23.23
2017-08-01T21:38:40.567Z,22.13
2017-08-01T21:41:07.235Z,23.90
2017-08-01T21:43:33.922Z,22.17
2017-08-01T21:46:00.591Z,23.40
2017-08-01T21:48:27.288Z,23.10
2017-08-01T21:50:53.983Z,23.10
2017-08-01T21:53:20.696Z,24.10
2017-08-01T21:55:47.364Z,21.48
2017-08-01T21:58:14.034Z,24.02
2017-08-01T22:00:40.712Z,22.23
2017-08-01T22:03:07.376Z,21.55
2017-08-01T22:05:34.068Z,20.92
2017-08-01T22:08:00.735Z,21.62
2017-08-01T22:10:27.423Z,22.52
2017-08-01T22:12:54.092Z,21.83
2017-08-01T22:15:20.784Z,21.95
2017-08-01T22:17:47.448Z,21.35
2017-08-01T22:20:14.134Z,23.65
2017-08-01T22:22:40.800Z,22.50
2017-08-01T22:25:07.491Z,23.52
2017-08-01T22:27:34.156Z,22.75
2017-08-01T22:30:00.859Z,20.65
2017-08-01T22:32:27.524Z,20.37
2017-08-01T22:34:54.190Z,20.40
2017-08-01T22:37:20.857Z,22.60
2017-08-01T22:39:47.524Z,22.92
2017-08-01T22:42:14.219Z,24.45
2017-08-01T22:44:40.884Z,24.02
2017-08-01T22:47:07.571Z,26.25
2017-08-01T22:49:34.230Z,26.42
2017-08-01T22:52:00.919Z,25.50
2017-08-01T22:54:27.588Z,25.10
2017-08-01T22:56:54.569Z,26.23
2017-08-01T22:59:21.235Z,26.30
2017-08-01T23:01:47.931Z,25.92
2017-08-01T23:04:14.600Z,26.87
2017-08-01T23:06:41.293Z,26.77
2017-08-01T23:09:07.965Z,26.20
2017-08-01T23:11:34.651Z,25.37
2017-08-01T23:14:01.320Z,24.92
2017-08-01T23:16:27.982Z,25.92
2017-08-01T23:18:54.672Z,25.10
2017-08-01T23:21:21.340Z,26.27
2017-08-01T23:23:48.036Z,26.65
2017-08-01T23:26:14.703Z,25.40
2017-08-01T23:28:41.420Z,26.23
2017-08-01T23:31:08.111Z,26.00
2017-08-01T23:33:34.803Z,25.55
2017-08-01T23:36:01.472Z,27.33
2017-08-01T23:38:28.148Z,27.20
2017-08-01T23:40:54.817Z,26.48
2017-08-01T23:43:21.518Z,27.15
2017-08-01T23:45:48.188Z,26.15
2017-08-01T23:48:14.859Z,28.70
2017-08-01T23:50:41.526Z,27.70
2017-08-01T23:53:08.190Z,29.42
2017-08-01T23:55:34.858Z,28.70
2017-08-01T23:58:01.524Z,29.30
